sensor_id;sensor_type;location;lat;lon;timestamp;P1;durP1;ratioP1;P2;durP2;ratioP2
20324;SDS011;10320;49.482;11.256;2022-09-17T00:02:02;7.27;;;5.20;;
20324;SDS011;10320;49.482;11.256;2022-09-17T00:04:29;7.20;;;5.23;;
20324;SDS011;10320;49.482;11.256;2022-09-17T00:06:55;7.13;;;5.33;;
20324;SDS011;10320;49.482;11.256;2022-09-17T00:09:21;8.00;;;5.80;;
20324;SDS011;10320;49.482;11.256;2022-09-17T00:11:47;6.97;;;5.13;;
20324;SDS011;10320;49.482;11.256;2022-09-17T00:14:14;10.20;;;5.87;;
20324;SDS011;10320;49.482;11.256;2022-09-17T00:16:43;6.27;;;5.27;;
20324;SDS011;10320;49.482;11.256;2022-09-17T00:19:14;9.57;;;5.50;;
20324;SDS011;10320;49.482;11.256;2022-09-17T00:21:40;6.73;;;5.80;;
20324;SDS011;10320;49.482;11.256;2022-09-17T00:24:06;8.53;;;6.33;;
20324;SDS011;10320;49.482;11.256;2022-09-17T00:26:33;8.57;;;6.20;;
20324;SDS011;10320;49.482;11.256;2022-09-17T00:28:59;11.57;;;6.40;;
20324;SDS011;10320;49.482;11.256;2022-09-17T00:31:26;8.00;;;6.00;;
20324;SDS011;10320;49.482;11.256;2022-09-17T00:33:52;7.87;;;5.80;;
20324;SDS011;10320;49.482;11.256;2022-09-17T00:36:19;8.13;;;6.10;;
20324;SDS011;10320;49.482;11.256;2022-09-17T00:38:55;9.17;;;6.53;;
20324;SDS011;10320;49.482;11.256;2022-09-17T00:41:22;9.77;;;6.50;;
20324;SDS011;10320;49.482;11.256;2022-09-17T00:43:50;10.23;;;6.07;;
20324;SDS011;10320;49.482;11.256;2022-09-17T00:46:30;11.70;;;6.80;;
20324;SDS011;10320;49.482;11.256;2022-09-17T00:49:02;10.23;;;6.67;;
20324;SDS011;10320;49.482;11.256;2022-09-17T00:51:31;8.87;;;6.07;;
20324;SDS011;10320;49.482;11.256;2022-09-17T00:53:58;9.17;;;6.27;;
20324;SDS011;10320;49.482;11.256;2022-09-17T00:56:26;7.63;;;6.30;;
20324;SDS011;10320;49.482;11.256;2022-09-17T00:58:53;8.97;;;6.40;;
20324;SDS011;10320;49.482;11.256;2022-09-17T01:01:20;8.63;;;6.40;;
20324;SDS011;10320;49.482;11.256;2022-09-17T01:03:46;7.50;;;5.83;;
20324;SDS011;10320;49.482;11.256;2022-09-17T01:14:39;8.30;;;5.50;;
20324;SDS011;10320;49.482;11.256;2022-09-17T01:27:09;9.03;;;5.50;;
20324;SDS011;10320;49.482;11.256;2022-09-17T01:30:15;8.93;;;5.50;;
20324;SDS011;10320;49.482;11.256;2022-09-17T01:32:38;7.37;;;5.93;;
20324;SDS011;10320;49.482;11.256;2022-09-17T01:35:10;8.17;;;5.80;;
20324;SDS011;10320;49.482;11.256;2022-09-17T01:43:03;8.33;;;6.13;;
20324;SDS011;10320;49.482;11.256;2022-09-17T01:45:35;11.53;;;6.17;;
20324;SDS011;10320;49.482;11.256;2022-09-17T01:48:08;11.43;;;6.63;;
20324;SDS011;10320;49.482;11.256;2022-09-17T01:50:37;12.87;;;7.40;;
20324;SDS011;10320;49.482;11.256;2022-09-17T01:53:04;10.23;;;7.10;;
20324;SDS011;10320;49.482;11.256;2022-09-17T01:55:32;13.60;;;8.07;;
20324;SDS011;10320;49.482;11.256;2022-09-17T01:58:04;12.43;;;8.40;;
20324;SDS011;10320;49.482;11.256;2022-09-17T02:00:32;13.17;;;8.47;;
20324;SDS011;10320;49.482;11.256;2022-09-17T02:06:04;13.93;;;8.70;;
20324;SDS011;10320;49.482;11.256;2022-09-17T02:08:38;12.83;;;8.23;;
20324;SDS011;10320;49.482;11.256;2022-09-17T02:11:06;15.17;;;9.10;;
20324;SDS011;10320;49.482;11.256;2022-09-17T02:13:37;15.33;;;9.00;;
20324;SDS011;10320;49.482;11.256;2022-09-17T02:16:07;13.73;;;9.00;;
20324;SDS011;10320;49.482;11.256;2022-09-17T02:18:39;15.13;;;8.90;;
20324;SDS011;10320;49.482;11.256;2022-09-17T02:21:09;10.13;;;8.90;;
20324;SDS011;10320;49.482;11.256;2022-09-17T02:23:40;13.37;;;9.23;;
20324;SDS011;10320;49.482;11.256;2022-09-17T02:26:10;16.33;;;9.97;;
20324;SDS011;10320;49.482;11.256;2022-09-17T02:28:41;14.17;;;8.70;;
20324;SDS011;10320;49.482;11.256;2022-09-17T02:31:10;16.93;;;10.00;;
20324;SDS011;10320;49.482;11.256;2022-09-17T02:33:36;14.30;;;9.50;;
20324;SDS011;10320;49.482;11.256;2022-09-17T02:36:03;17.40;;;9.90;;
20324;SDS011;10320;49.482;11.256;2022-09-17T02:38:29;14.03;;;9.87;;
20324;SDS011;10320;49.482;11.256;2022-09-17T02:41:39;13.73;;;9.73;;
20324;SDS011;10320;49.482;11.256;2022-09-17T02:44:08;14.70;;;9.03;;
20324;SDS011;10320;49.482;11.256;2022-09-17T02:49:08;12.37;;;8.40;;
20324;SDS011;10320;49.482;11.256;2022-09-17T02:51:39;13.07;;;9.00;;
20324;SDS011;10320;49.482;11.256;2022-09-17T02:59:36;13.70;;;7.77;;
20324;SDS011;10320;49.482;11.256;2022-09-17T03:04:32;10.33;;;7.33;;
20324;SDS011;10320;49.482;11.256;2022-09-17T03:06:59;10.60;;;7.60;;
20324;SDS011;10320;49.482;11.256;2022-09-17T03:09:30;13.17;;;7.63;;
20324;SDS011;10320;49.482;11.256;2022-09-17T03:11:56;12.63;;;8.23;;
20324;SDS011;10320;49.482;11.256;2022-09-17T03:14:22;13.10;;;7.70;;
20324;SDS011;10320;49.482;11.256;2022-09-17T03:16:48;11.97;;;8.13;;
20324;SDS011;10320;49.482;11.256;2022-09-17T03:19:14;13.13;;;7.83;;
20324;SDS011;10320;49.482;11.256;2022-09-17T03:21:40;11.80;;;7.73;;
20324;SDS011;10320;49.482;11.256;2022-09-17T03:24:06;11.43;;;7.77;;
20324;SDS011;10320;49.482;11.256;2022-09-17T03:26:32;10.80;;;7.77;;
20324;SDS011;10320;49.482;11.256;2022-09-17T03:28:58;10.77;;;7.47;;
20324;SDS011;10320;49.482;11.256;2022-09-17T03:31:24;15.33;;;7.53;;
20324;SDS011;10320;49.482;11.256;2022-09-17T03:33:50;9.07;;;7.30;;
20324;SDS011;10320;49.482;11.256;2022-09-17T03:36:16;12.60;;;7.70;;
20324;SDS011;10320;49.482;11.256;2022-09-17T03:38:42;13.87;;;7.67;;
20324;SDS011;10320;49.482;11.256;2022-09-17T03:41:08;10.97;;;7.50;;
20324;SDS011;10320;49.482;11.256;2022-09-17T03:43:35;11.40;;;7.00;;
20324;SDS011;10320;49.482;11.256;2022-09-17T03:46:01;12.77;;;8.07;;
20324;SDS011;10320;49.482;11.256;2022-09-17T03:48:27;9.67;;;7.23;;
20324;SDS011;10320;49.482;11.256;2022-09-17T03:50:54;12.53;;;6.90;;
20324;SDS011;10320;49.482;11.256;2022-09-17T03:53:20;8.37;;;6.93;;
20324;SDS011;10320;49.482;11.256;2022-09-17T03:55:46;9.00;;;6.80;;
20324;SDS011;10320;49.482;11.256;2022-09-17T03:58:12;9.50;;;6.33;;
20324;SDS011;10320;49.482;11.256;2022-09-17T04:00:38;8.90;;;6.23;;
20324;SDS011;10320;49.482;11.256;2022-09-17T04:03:05;12.03;;;6.93;;
20324;SDS011;10320;49.482;11.256;2022-09-17T04:05:31;8.63;;;6.13;;
20324;SDS011;10320;49.482;11.256;2022-09-17T04:07:57;8.67;;;6.23;;
20324;SDS011;10320;49.482;11.256;2022-09-17T04:10:23;10.93;;;5.97;;
20324;SDS011;10320;49.482;11.256;2022-09-17T04:12:50;7.50;;;5.50;;
20324;SDS011;10320;49.482;11.256;2022-09-17T04:15:16;8.83;;;5.53;;
20324;SDS011;10320;49.482;11.256;2022-09-17T04:17:42;6.73;;;5.93;;
20324;SDS011;10320;49.482;11.256;2022-09-17T04:20:08;8.50;;;5.27;;
20324;SDS011;10320;49.482;11.256;2022-09-17T04:22:34;9.67;;;6.03;;
20324;SDS011;10320;49.482;11.256;2022-09-17T04:25:00;8.43;;;5.27;;
20324;SDS011;10320;49.482;11.256;2022-09-17T04:27:26;7.27;;;5.67;;
20324;SDS011;10320;49.482;11.256;2022-09-17T04:29:52;6.23;;;4.90;;
20324;SDS011;10320;49.482;11.256;2022-09-17T04:32:18;7.67;;;4.53;;
20324;SDS011;10320;49.482;11.256;2022-09-17T04:34:44;5.23;;;4.33;;
20324;SDS011;10320;49.482;11.256;2022-09-17T04:37:10;7.87;;;4.60;;
20324;SDS011;10320;49.482;11.256;2022-09-17T04:39:36;8.17;;;4.80;;
20324;SDS011;10320;49.482;11.256;2022-09-17T04:42:02;5.10;;;4.30;;
20324;SDS011;10320;49.482;11.256;2022-09-17T04:44:28;6.63;;;4.33;;
20324;SDS011;10320;49.482;11.256;2022-09-17T04:46:54;9.43;;;5.03;;
20324;SDS011;10320;49.482;11.256;2022-09-17T04:49:20;5.57;;;4.03;;
20324;SDS011;10320;49.482;11.256;2022-09-17T04:51:46;6.97;;;4.37;;
20324;SDS011;10320;49.482;11.256;2022-09-17T04:54:12;7.37;;;3.57;;
20324;SDS011;10320;49.482;11.256;2022-09-17T04:56:38;6.60;;;3.90;;
20324;SDS011;10320;49.482;11.256;2022-09-17T04:59:04;6.23;;;4.07;;
20324;SDS011;10320;49.482;11.256;2022-09-17T05:01:30;6.53;;;3.60;;
20324;SDS011;10320;49.482;11.256;2022-09-17T05:03:56;7.80;;;4.07;;
20324;SDS011;10320;49.482;11.256;2022-09-17T05:06:22;7.37;;;3.80;;
20324;SDS011;10320;49.482;11.256;2022-09-17T05:08:48;6.73;;;3.60;;
20324;SDS011;10320;49.482;11.256;2022-09-17T05:11:14;10.33;;;3.60;;
20324;SDS011;10320;49.482;11.256;2022-09-17T05:13:40;6.77;;;3.50;;
20324;SDS011;10320;49.482;11.256;2022-09-17T05:16:06;5.10;;;3.40;;
20324;SDS011;10320;49.482;11.256;2022-09-17T05:18:32;6.23;;;3.40;;
20324;SDS011;10320;49.482;11.256;2022-09-17T05:20:58;8.40;;;3.17;;
20324;SDS011;10320;49.482;11.256;2022-09-17T05:23:24;4.87;;;3.20;;
20324;SDS011;10320;49.482;11.256;2022-09-17T05:25:50;4.30;;;3.10;;
20324;SDS011;10320;49.482;11.256;2022-09-17T05:28:17;6.67;;;3.30;;
20324;SDS011;10320;49.482;11.256;2022-09-17T05:30:42;7.10;;;3.57;;
20324;SDS011;10320;49.482;11.256;2022-09-17T05:33:08;4.07;;;2.97;;
20324;SDS011;10320;49.482;11.256;2022-09-17T05:35:34;5.93;;;3.20;;
20324;SDS011;10320;49.482;11.256;2022-09-17T05:38:01;4.57;;;3.20;;
20324;SDS011;10320;49.482;11.256;2022-09-17T05:40:29;5.17;;;2.53;;
20324;SDS011;10320;49.482;11.256;2022-09-17T05:43:01;7.13;;;3.10;;
20324;SDS011;10320;49.482;11.256;2022-09-17T05:45:28;5.10;;;2.53;;
20324;SDS011;10320;49.482;11.256;2022-09-17T05:47:58;3.57;;;2.70;;
20324;SDS011;10320;49.482;11.256;2022-09-17T05:50:24;5.30;;;2.50;;
20324;SDS011;10320;49.482;11.256;2022-09-17T05:52:51;4.77;;;2.77;;
20324;SDS011;10320;49.482;11.256;2022-09-17T05:55:17;4.93;;;2.50;;
20324;SDS011;10320;49.482;11.256;2022-09-17T05:57:43;5.47;;;2.80;;
20324;SDS011;10320;49.482;11.256;2022-09-17T06:00:09;4.37;;;2.50;;
20324;SDS011;10320;49.482;11.256;2022-09-17T06:02:36;3.80;;;2.70;;
20324;SDS011;10320;49.482;11.256;2022-09-17T06:05:02;7.17;;;2.50;;
20324;SDS011;10320;49.482;11.256;2022-09-17T06:07:28;4.23;;;2.63;;
20324;SDS011;10320;49.482;11.256;2022-09-17T06:09:54;4.03;;;2.50;;
20324;SDS011;10320;49.482;11.256;2022-09-17T06:12:21;6.97;;;2.77;;
20324;SDS011;10320;49.482;11.256;2022-09-17T06:14:47;3.53;;;2.73;;
20324;SDS011;10320;49.482;11.256;2022-09-17T06:17:13;4.67;;;2.10;;
20324;SDS011;10320;49.482;11.256;2022-09-17T06:19:39;3.67;;;2.00;;
20324;SDS011;10320;49.482;11.256;2022-09-17T06:22:05;2.73;;;1.53;;
20324;SDS011;10320;49.482;11.256;2022-09-17T06:24:31;3.87;;;1.73;;
20324;SDS011;10320;49.482;11.256;2022-09-17T06:26:57;3.50;;;1.80;;
20324;SDS011;10320;49.482;11.256;2022-09-17T06:29:23;2.20;;;1.80;;
20324;SDS011;10320;49.482;11.256;2022-09-17T06:31:49;3.90;;;1.87;;
20324;SDS011;10320;49.482;11.256;2022-09-17T06:34:16;2.90;;;1.60;;
20324;SDS011;10320;49.482;11.256;2022-09-17T06:36:42;2.13;;;1.50;;
20324;SDS011;10320;49.482;11.256;2022-09-17T06:39:08;3.63;;;1.90;;
20324;SDS011;10320;49.482;11.256;2022-09-17T06:41:35;2.97;;;1.70;;
20324;SDS011;10320;49.482;11.256;2022-09-17T06:44:01;3.70;;;1.77;;
20324;SDS011;10320;49.482;11.256;2022-09-17T06:46:28;2.30;;;1.80;;
20324;SDS011;10320;49.482;11.256;2022-09-17T06:48:53;2.43;;;2.20;;
20324;SDS011;10320;49.482;11.256;2022-09-17T06:51:19;2.60;;;2.00;;
20324;SDS011;10320;49.482;11.256;2022-09-17T06:53:46;3.17;;;2.17;;
20324;SDS011;10320;49.482;11.256;2022-09-17T06:56:13;3.80;;;2.10;;
20324;SDS011;10320;49.482;11.256;2022-09-17T06:58:39;6.67;;;2.07;;
20324;SDS011;10320;49.482;11.256;2022-09-17T07:01:09;4.60;;;2.10;;
20324;SDS011;10320;49.482;11.256;2022-09-17T07:03:36;2.93;;;1.63;;
20324;SDS011;10320;49.482;11.256;2022-09-17T07:06:02;4.43;;;1.90;;
20324;SDS011;10320;49.482;11.256;2022-09-17T07:08:30;2.83;;;1.90;;
20324;SDS011;10320;49.482;11.256;2022-09-17T07:10:58;2.80;;;1.70;;
20324;SDS011;10320;49.482;11.256;2022-09-17T07:13:24;3.23;;;1.60;;
20324;SDS011;10320;49.482;11.256;2022-09-17T07:15:51;2.40;;;1.70;;
20324;SDS011;10320;49.482;11.256;2022-09-17T07:18:18;2.80;;;1.83;;
20324;SDS011;10320;49.482;11.256;2022-09-17T07:20:50;3.03;;;1.90;;
20324;SDS011;10320;49.482;11.256;2022-09-17T07:23:17;4.00;;;2.03;;
20324;SDS011;10320;49.482;11.256;2022-09-17T07:25:43;3.60;;;2.10;;
20324;SDS011;10320;49.482;11.256;2022-09-17T07:28:09;3.33;;;2.20;;
20324;SDS011;10320;49.482;11.256;2022-09-17T07:30:35;4.00;;;2.47;;
20324;SDS011;10320;49.482;11.256;2022-09-17T07:33:01;3.70;;;2.30;;
20324;SDS011;10320;49.482;11.256;2022-09-17T07:35:27;4.37;;;2.20;;
20324;SDS011;10320;49.482;11.256;2022-09-17T07:37:53;3.23;;;2.40;;
20324;SDS011;10320;49.482;11.256;2022-09-17T07:40:19;4.03;;;2.47;;
20324;SDS011;10320;49.482;11.256;2022-09-17T07:42:45;5.03;;;2.70;;
20324;SDS011;10320;49.482;11.256;2022-09-17T07:45:11;4.00;;;3.00;;
20324;SDS011;10320;49.482;11.256;2022-09-17T07:47:38;3.77;;;2.77;;
20324;SDS011;10320;49.482;11.256;2022-09-17T07:50:04;3.70;;;3.00;;
20324;SDS011;10320;49.482;11.256;2022-09-17T07:52:30;4.10;;;3.33;;
20324;SDS011;10320;49.482;11.256;2022-09-17T07:54:56;4.40;;;3.30;;
20324;SDS011;10320;49.482;11.256;2022-09-17T07:57:22;6.27;;;3.63;;
20324;SDS011;10320;49.482;11.256;2022-09-17T07:59:48;5.07;;;3.40;;
20324;SDS011;10320;49.482;11.256;2022-09-17T08:02:14;5.83;;;3.87;;
20324;SDS011;10320;49.482;11.256;2022-09-17T08:04:41;5.53;;;3.47;;
20324;SDS011;10320;49.482;11.256;2022-09-17T08:07:10;6.47;;;4.13;;
20324;SDS011;10320;49.482;11.256;2022-09-17T08:09:37;5.13;;;4.30;;
20324;SDS011;10320;49.482;11.256;2022-09-17T08:12:03;5.60;;;4.23;;
20324;SDS011;10320;49.482;11.256;2022-09-17T08:14:29;5.63;;;5.00;;
20324;SDS011;10320;49.482;11.256;2022-09-17T08:16:55;6.67;;;4.50;;
20324;SDS011;10320;49.482;11.256;2022-09-17T08:19:21;5.13;;;4.60;;
20324;SDS011;10320;49.482;11.256;2022-09-17T08:21:48;7.73;;;4.77;;
20324;SDS011;10320;49.482;11.256;2022-09-17T08:24:14;4.67;;;4.07;;
20324;SDS011;10320;49.482;11.256;2022-09-17T08:26:40;7.00;;;4.70;;
20324;SDS011;10320;49.482;11.256;2022-09-17T08:29:06;7.10;;;4.73;;
20324;SDS011;10320;49.482;11.256;2022-09-17T08:31:32;7.20;;;4.73;;
20324;SDS011;10320;49.482;11.256;2022-09-17T08:33:58;6.63;;;4.57;;
20324;SDS011;10320;49.482;11.256;2022-09-17T08:36:24;7.77;;;4.77;;
20324;SDS011;10320;49.482;11.256;2022-09-17T08:38:51;6.50;;;4.50;;
20324;SDS011;10320;49.482;11.256;2022-09-17T08:41:25;6.00;;;4.07;;
20324;SDS011;10320;49.482;11.256;2022-09-17T08:46:32;7.93;;;4.47;;
20324;SDS011;10320;49.482;11.256;2022-09-17T08:56:43;8.40;;;4.70;;
20324;SDS011;10320;49.482;11.256;2022-09-17T08:59:18;8.07;;;4.40;;
20324;SDS011;10320;49.482;11.256;2022-09-17T09:09:24;12.03;;;5.00;;
20324;SDS011;10320;49.482;11.256;2022-09-17T09:11:58;9.83;;;4.50;;
20324;SDS011;10320;49.482;11.256;2022-09-17T09:14:36;9.97;;;4.17;;
20324;SDS011;10320;49.482;11.256;2022-09-17T09:17:06;6.07;;;4.13;;
20324;SDS011;10320;49.482;11.256;2022-09-17T09:19:42;7.47;;;4.30;;
20324;SDS011;10320;49.482;11.256;2022-09-17T09:27:16;6.23;;;3.53;;
20324;SDS011;10320;49.482;11.256;2022-09-17T09:29:59;5.30;;;3.23;;
20324;SDS011;10320;49.482;11.256;2022-09-17T09:35:28;5.70;;;3.40;;
20324;SDS011;10320;49.482;11.256;2022-09-17T09:37:56;7.37;;;3.33;;
20324;SDS011;10320;49.482;11.256;2022-09-17T09:42:52;6.13;;;2.80;;
20324;SDS011;10320;49.482;11.256;2022-09-17T09:45:25;8.07;;;3.17;;
20324;SDS011;10320;49.482;11.256;2022-09-17T09:47:55;7.27;;;2.90;;
20324;SDS011;10320;49.482;11.256;2022-09-17T09:57:58;7.33;;;3.30;;
20324;SDS011;10320;49.482;11.256;2022-09-17T10:02:59;5.70;;;2.80;;
20324;SDS011;10320;49.482;11.256;2022-09-17T10:05:27;6.27;;;2.83;;
20324;SDS011;10320;49.482;11.256;2022-09-17T10:07:53;7.43;;;2.90;;
20324;SDS011;10320;49.482;11.256;2022-09-17T10:10:19;5.57;;;3.07;;
20324;SDS011;10320;49.482;11.256;2022-09-17T10:12:45;6.63;;;3.10;;
20324;SDS011;10320;49.482;11.256;2022-09-17T10:15:24;4.17;;;2.60;;
20324;SDS011;10320;49.482;11.256;2022-09-17T10:20:57;5.73;;;2.73;;
20324;SDS011;10320;49.482;11.256;2022-09-17T10:23:24;8.80;;;3.10;;
20324;SDS011;10320;49.482;11.256;2022-09-17T10:25:51;6.77;;;2.80;;
20324;SDS011;10320;49.482;11.256;2022-09-17T10:31:04;5.80;;;2.80;;
20324;SDS011;10320;49.482;11.256;2022-09-17T10:33:34;7.83;;;2.70;;
20324;SDS011;10320;49.482;11.256;2022-09-17T10:36:02;8.40;;;3.00;;
20324;SDS011;10320;49.482;11.256;2022-09-17T10:41:15;6.17;;;2.93;;
20324;SDS011;10320;49.482;11.256;2022-09-17T10:43:42;6.13;;;3.20;;
20324;SDS011;10320;49.482;11.256;2022-09-17T10:46:09;6.73;;;3.10;;
20324;SDS011;10320;49.482;11.256;2022-09-17T10:48:45;6.07;;;2.70;;
20324;SDS011;10320;49.482;11.256;2022-09-17T10:51:19;5.53;;;2.80;;
20324;SDS011;10320;49.482;11.256;2022-09-17T10:56:35;4.10;;;2.70;;
20324;SDS011;10320;49.482;11.256;2022-09-17T11:04:25;6.07;;;2.63;;
20324;SDS011;10320;49.482;11.256;2022-09-17T11:12:24;6.00;;;2.77;;
20324;SDS011;10320;49.482;11.256;2022-09-17T11:15:05;5.93;;;2.50;;
20324;SDS011;10320;49.482;11.256;2022-09-17T11:17:57;5.67;;;2.47;;
20324;SDS011;10320;49.482;11.256;2022-09-17T11:22:57;4.67;;;2.87;;
20324;SDS011;10320;49.482;11.256;2022-09-17T11:30:22;4.93;;;2.60;;
20324;SDS011;10320;49.482;11.256;2022-09-17T11:35:22;5.90;;;2.60;;
20324;SDS011;10320;49.482;11.256;2022-09-17T11:37:55;6.07;;;2.73;;
20324;SDS011;10320;49.482;11.256;2022-09-17T11:40:24;6.70;;;3.00;;
20324;SDS011;10320;49.482;11.256;2022-09-17T11:43:36;6.50;;;2.30;;
20324;SDS011;10320;49.482;11.256;2022-09-17T11:46:30;6.30;;;2.67;;
20324;SDS011;10320;49.482;11.256;2022-09-17T11:48:37;5.87;;;2.50;;
20324;SDS011;10320;49.482;11.256;2022-09-17T11:53:35;3.17;;;1.90;;
20324;SDS011;10320;49.482;11.256;2022-09-17T11:56:16;4.73;;;2.37;;
20324;SDS011;10320;49.482;11.256;2022-09-17T11:58:47;5.07;;;2.30;;
20324;SDS011;10320;49.482;11.256;2022-09-17T12:02:00;4.43;;;2.23;;
20324;SDS011;10320;49.482;11.256;2022-09-17T12:04:15;4.30;;;2.33;;
20324;SDS011;10320;49.482;11.256;2022-09-17T12:06:49;6.43;;;2.53;;
20324;SDS011;10320;49.482;11.256;2022-09-17T12:09:35;3.43;;;2.20;;
20324;SDS011;10320;49.482;11.256;2022-09-17T12:14:30;5.17;;;2.50;;
20324;SDS011;10320;49.482;11.256;2022-09-17T12:16:59;4.20;;;2.30;;
20324;SDS011;10320;49.482;11.256;2022-09-17T12:19:39;4.80;;;2.43;;
20324;SDS011;10320;49.482;11.256;2022-09-17T12:22:07;4.77;;;2.07;;
20324;SDS011;10320;49.482;11.256;2022-09-17T12:24:34;5.30;;;2.57;;
20324;SDS011;10320;49.482;11.256;2022-09-17T12:29:55;3.83;;;2.20;;
20324;SDS011;10320;49.482;11.256;2022-09-17T12:45:45;4.07;;;2.50;;
20324;SDS011;10320;49.482;11.256;2022-09-17T12:48:20;5.30;;;2.67;;
20324;SDS011;10320;49.482;11.256;2022-09-17T12:56:16;4.83;;;2.43;;
20324;SDS011;10320;49.482;11.256;2022-09-17T13:04:03;4.57;;;2.40;;
20324;SDS011;10320;49.482;11.256;2022-09-17T13:14:16;4.63;;;2.50;;
20324;SDS011;10320;49.482;11.256;2022-09-17T13:16:48;5.73;;;2.73;;
20324;SDS011;10320;49.482;11.256;2022-09-17T13:21:59;4.20;;;2.10;;
20324;SDS011;10320;49.482;11.256;2022-09-17T13:24:26;3.77;;;2.53;;
20324;SDS011;10320;49.482;11.256;2022-09-17T13:26:55;3.47;;;2.37;;
20324;SDS011;10320;49.482;11.256;2022-09-17T13:32:07;4.57;;;2.53;;
20324;SDS011;10320;49.482;11.256;2022-09-17T13:34:33;4.07;;;2.60;;
20324;SDS011;10320;49.482;11.256;2022-09-17T13:37:01;5.17;;;2.30;;
20324;SDS011;10320;49.482;11.256;2022-09-17T13:39:38;4.13;;;2.20;;
20324;SDS011;10320;49.482;11.256;2022-09-17T13:42:06;3.50;;;2.20;;
20324;SDS011;10320;49.482;11.256;2022-09-17T13:44:34;2.33;;;1.17;;
20324;SDS011;10320;49.482;11.256;2022-09-17T13:47:15;2.40;;;1.30;;
20324;SDS011;10320;49.482;11.256;2022-09-17T13:49:43;1.77;;;1.43;;
20324;SDS011;10320;49.482;11.256;2022-09-17T13:52:09;3.27;;;1.90;;
20324;SDS011;10320;49.482;11.256;2022-09-17T13:54:36;2.97;;;2.20;;
20324;SDS011;10320;49.482;11.256;2022-09-17T13:57:04;3.93;;;1.40;;
20324;SDS011;10320;49.482;11.256;2022-09-17T13:59:31;2.07;;;1.50;;
20324;SDS011;10320;49.482;11.256;2022-09-17T14:09:50;2.50;;;1.57;;
20324;SDS011;10320;49.482;11.256;2022-09-17T14:15:01;2.43;;;1.77;;
20324;SDS011;10320;49.482;11.256;2022-09-17T14:17:48;2.40;;;1.30;;
20324;SDS011;10320;49.482;11.256;2022-09-17T14:20:20;2.40;;;1.50;;
20324;SDS011;10320;49.482;11.256;2022-09-17T14:22:55;2.10;;;1.10;;
20324;SDS011;10320;49.482;11.256;2022-09-17T14:25:21;3.63;;;1.40;;
20324;SDS011;10320;49.482;11.256;2022-09-17T14:27:59;2.97;;;1.40;;
20324;SDS011;10320;49.482;11.256;2022-09-17T14:30:31;1.93;;;1.20;;
20324;SDS011;10320;49.482;11.256;2022-09-17T14:33:05;1.43;;;1.00;;
20324;SDS011;10320;49.482;11.256;2022-09-17T14:35:37;1.50;;;0.90;;
20324;SDS011;10320;49.482;11.256;2022-09-17T14:40:41;2.33;;;1.40;;
20324;SDS011;10320;49.482;11.256;2022-09-17T14:43:14;1.53;;;1.40;;
20324;SDS011;10320;49.482;11.256;2022-09-17T14:45:42;1.77;;;1.33;;
20324;SDS011;10320;49.482;11.256;2022-09-17T14:53:38;2.77;;;1.23;;
20324;SDS011;10320;49.482;11.256;2022-09-17T14:56:04;2.80;;;2.00;;
20324;SDS011;10320;49.482;11.256;2022-09-17T14:58:32;3.10;;;1.50;;
20324;SDS011;10320;49.482;11.256;2022-09-17T15:00:59;2.40;;;1.40;;
20324;SDS011;10320;49.482;11.256;2022-09-17T15:03:25;1.80;;;1.30;;
20324;SDS011;10320;49.482;11.256;2022-09-17T15:05:51;2.40;;;1.37;;
20324;SDS011;10320;49.482;11.256;2022-09-17T15:13:27;1.45;;;1.20;;
20324;SDS011;10320;49.482;11.256;2022-09-17T15:18:27;2.60;;;1.60;;
20324;SDS011;10320;49.482;11.256;2022-09-17T15:20:55;2.47;;;1.70;;
20324;SDS011;10320;49.482;11.256;2022-09-17T15:23:23;2.00;;;1.75;;
20324;SDS011;10320;49.482;11.256;2022-09-17T15:25:51;1.95;;;1.60;;
20324;SDS011;10320;49.482;11.256;2022-09-17T15:28:26;2.53;;;1.67;;
20324;SDS011;10320;49.482;11.256;2022-09-17T15:30:53;1.95;;;1.70;;
20324;SDS011;10320;49.482;11.256;2022-09-17T15:33:19;3.40;;;1.83;;
20324;SDS011;10320;49.482;11.256;2022-09-17T15:36:08;2.72;;;2.20;;
20324;SDS011;10320;49.482;11.256;2022-09-17T15:38:37;2.28;;;1.77;;
20324;SDS011;10320;49.482;11.256;2022-09-17T15:43:48;3.37;;;2.30;;
20324;SDS011;10320;49.482;11.256;2022-09-17T15:46:25;3.93;;;2.73;;
20324;SDS011;10320;49.482;11.256;2022-09-17T15:48:54;6.03;;;2.83;;
20324;SDS011;10320;49.482;11.256;2022-09-17T15:51:24;5.43;;;2.70;;
20324;SDS011;10320;49.482;11.256;2022-09-17T15:53:52;5.20;;;2.30;;
20324;SDS011;10320;49.482;11.256;2022-09-17T15:56:21;4.23;;;2.07;;
20324;SDS011;10320;49.482;11.256;2022-09-17T16:08:46;3.63;;;1.90;;
20324;SDS011;10320;49.482;11.256;2022-09-17T16:11:13;2.47;;;1.50;;
20324;SDS011;10320;49.482;11.256;2022-09-17T16:13:39;2.80;;;1.60;;
20324;SDS011;10320;49.482;11.256;2022-09-17T16:16:05;3.27;;;1.70;;
20324;SDS011;10320;49.482;11.256;2022-09-17T16:18:32;4.43;;;1.60;;
20324;SDS011;10320;49.482;11.256;2022-09-17T16:20:58;3.17;;;1.50;;
20324;SDS011;10320;49.482;11.256;2022-09-17T16:23:24;3.10;;;1.60;;
20324;SDS011;10320;49.482;11.256;2022-09-17T16:25:50;2.93;;;2.47;;
20324;SDS011;10320;49.482;11.256;2022-09-17T16:28:17;2.00;;;1.50;;
20324;SDS011;10320;49.482;11.256;2022-09-17T16:30:45;2.10;;;1.50;;
20324;SDS011;10320;49.482;11.256;2022-09-17T16:33:12;4.03;;;1.90;;
20324;SDS011;10320;49.482;11.256;2022-09-17T16:35:39;3.63;;;1.40;;
20324;SDS011;10320;49.482;11.256;2022-09-17T16:38:05;1.37;;;1.27;;
20324;SDS011;10320;49.482;11.256;2022-09-17T16:40:31;3.30;;;1.70;;
20324;SDS011;10320;49.482;11.256;2022-09-17T16:43:01;2.10;;;1.27;;
20324;SDS011;10320;49.482;11.256;2022-09-17T16:45:28;2.83;;;1.40;;
20324;SDS011;10320;49.482;11.256;2022-09-17T16:47:55;4.77;;;2.10;;
20324;SDS011;10320;49.482;11.256;2022-09-17T16:50:21;3.33;;;2.03;;
20324;SDS011;10320;49.482;11.256;2022-09-17T16:52:47;3.03;;;1.67;;
20324;SDS011;10320;49.482;11.256;2022-09-17T16:55:15;2.67;;;1.60;;
20324;SDS011;10320;49.482;11.256;2022-09-17T16:57:41;4.13;;;1.40;;
20324;SDS011;10320;49.482;11.256;2022-09-17T17:00:08;4.70;;;1.87;;
20324;SDS011;10320;49.482;11.256;2022-09-17T17:02:38;3.50;;;1.80;;
20324;SDS011;10320;49.482;11.256;2022-09-17T17:05:04;2.93;;;1.90;;
20324;SDS011;10320;49.482;11.256;2022-09-17T17:07:31;3.67;;;1.80;;
20324;SDS011;10320;49.482;11.256;2022-09-17T17:09:57;3.07;;;1.70;;
20324;SDS011;10320;49.482;11.256;2022-09-17T17:12:24;3.77;;;1.97;;
20324;SDS011;10320;49.482;11.256;2022-09-17T17:14:50;1.77;;;1.60;;
20324;SDS011;10320;49.482;11.256;2022-09-17T17:17:17;3.43;;;1.53;;
20324;SDS011;10320;49.482;11.256;2022-09-17T17:19:43;3.73;;;1.80;;
20324;SDS011;10320;49.482;11.256;2022-09-17T17:22:13;3.00;;;1.53;;
20324;SDS011;10320;49.482;11.256;2022-09-17T17:24:39;2.77;;;1.70;;
20324;SDS011;10320;49.482;11.256;2022-09-17T17:27:05;3.17;;;1.70;;
20324;SDS011;10320;49.482;11.256;2022-09-17T17:29:33;3.83;;;1.80;;
20324;SDS011;10320;49.482;11.256;2022-09-17T17:32:00;2.57;;;1.87;;
20324;SDS011;10320;49.482;11.256;2022-09-17T17:34:26;5.43;;;2.20;;
20324;SDS011;10320;49.482;11.256;2022-09-17T17:36:52;4.73;;;2.33;;
20324;SDS011;10320;49.482;11.256;2022-09-17T17:39:18;3.93;;;2.17;;
20324;SDS011;10320;49.482;11.256;2022-09-17T17:41:44;3.87;;;2.17;;
20324;SDS011;10320;49.482;11.256;2022-09-17T17:44:10;2.23;;;1.30;;
20324;SDS011;10320;49.482;11.256;2022-09-17T17:46:37;2.70;;;1.50;;
20324;SDS011;10320;49.482;11.256;2022-09-17T17:49:03;1.93;;;1.27;;
20324;SDS011;10320;49.482;11.256;2022-09-17T17:51:30;2.10;;;1.60;;
20324;SDS011;10320;49.482;11.256;2022-09-17T17:53:56;3.80;;;1.70;;